sensor_id;sensor_type;location;lat;lon;timestamp;P1;durP1;ratioP1;P2;durP2;ratioP2
72856;SDS011;62742;52.136;4.500;2023-08-21T00:00:46;8.65;;;4.07;;
72856;SDS011;62742;52.136;4.500;2023-08-21T00:03:13;9.52;;;4.30;;
72856;SDS011;62742;52.136;4.500;2023-08-21T00:05:39;10.27;;;4.60;;
72856;SDS011;62742;52.136;4.500;2023-08-21T00:08:06;8.07;;;4.78;;
72856;SDS011;62742;52.136;4.500;2023-08-21T00:10:38;12.82;;;5.88;;
72856;SDS011;62742;52.136;4.500;2023-08-21T00:13:06;10.43;;;6.28;;
72856;SDS011;62742;52.136;4.500;2023-08-21T00:15:33;12.00;;;6.50;;
72856;SDS011;62742;52.136;4.500;2023-08-21T00:18:01;12.43;;;6.93;;
72856;SDS011;62742;52.136;4.500;2023-08-21T00:20:27;12.68;;;6.07;;
72856;SDS011;62742;52.136;4.500;2023-08-21T00:22:54;12.32;;;4.95;;
72856;SDS011;62742;52.136;4.500;2023-08-21T00:25:21;10.82;;;5.32;;
72856;SDS011;62742;52.136;4.500;2023-08-21T00:27:48;9.23;;;5.00;;
72856;SDS011;62742;52.136;4.500;2023-08-21T00:30:18;10.00;;;5.45;;
72856;SDS011;62742;52.136;4.500;2023-08-21T00:32:44;8.38;;;4.65;;
72856;SDS011;62742;52.136;4.500;2023-08-21T00:35:11;10.10;;;5.18;;
72856;SDS011;62742;52.136;4.500;2023-08-21T00:37:37;8.82;;;5.30;;
72856;SDS011;62742;52.136;4.500;2023-08-21T00:40:05;12.43;;;5.68;;
72856;SDS011;62742;52.136;4.500;2023-08-21T00:42:33;11.88;;;5.43;;
72856;SDS011;62742;52.136;4.500;2023-08-21T00:45:00;8.65;;;4.63;;
72856;SDS011;62742;52.136;4.500;2023-08-21T00:47:26;11.60;;;4.68;;
72856;SDS011;62742;52.136;4.500;2023-08-21T00:49:53;10.90;;;3.97;;
72856;SDS011;62742;52.136;4.500;2023-08-21T00:52:21;11.43;;;5.10;;
72856;SDS011;62742;52.136;4.500;2023-08-21T00:54:47;8.75;;;4.60;;
72856;SDS011;62742;52.136;4.500;2023-08-21T00:57:16;12.55;;;5.00;;
72856;SDS011;62742;52.136;4.500;2023-08-21T00:59:43;11.93;;;5.30;;
72856;SDS011;62742;52.136;4.500;2023-08-21T01:02:10;11.13;;;5.10;;
72856;SDS011;62742;52.136;4.500;2023-08-21T01:04:37;8.48;;;4.30;;
72856;SDS011;62742;52.136;4.500;2023-08-21T01:07:05;9.23;;;4.75;;
72856;SDS011;62742;52.136;4.500;2023-08-21T01:09:54;13.00;;;6.05;;
72856;SDS011;62742;52.136;4.500;2023-08-21T01:12:53;9.77;;;4.47;;
72856;SDS011;62742;52.136;4.500;2023-08-21T01:15:35;9.98;;;4.78;;
72856;SDS011;62742;52.136;4.500;2023-08-21T01:18:04;9.43;;;4.25;;
72856;SDS011;62742;52.136;4.500;2023-08-21T01:20:34;9.68;;;4.90;;
72856;SDS011;62742;52.136;4.500;2023-08-21T01:23:04;10.85;;;4.30;;
72856;SDS011;62742;52.136;4.500;2023-08-21T01:25:32;7.75;;;4.30;;
72856;SDS011;62742;52.136;4.500;2023-08-21T01:27:58;9.07;;;4.30;;
72856;SDS011;62742;52.136;4.500;2023-08-21T01:30:26;8.98;;;4.05;;
72856;SDS011;62742;52.136;4.500;2023-08-21T01:33:05;10.43;;;3.72;;
72856;SDS011;62742;52.136;4.500;2023-08-21T01:35:37;10.40;;;5.18;;
72856;SDS011;62742;52.136;4.500;2023-08-21T01:38:04;11.38;;;5.40;;
72856;SDS011;62742;52.136;4.500;2023-08-21T01:40:32;9.23;;;5.15;;
72856;SDS011;62742;52.136;4.500;2023-08-21T01:42:58;15.00;;;7.00;;
72856;SDS011;62742;52.136;4.500;2023-08-21T01:45:25;13.27;;;5.60;;
72856;SDS011;62742;52.136;4.500;2023-08-21T01:47:52;11.93;;;6.38;;
72856;SDS011;62742;52.136;4.500;2023-08-21T01:50:19;10.50;;;5.57;;
72856;SDS011;62742;52.136;4.500;2023-08-21T01:52:45;11.35;;;5.85;;
72856;SDS011;62742;52.136;4.500;2023-08-21T01:55:12;11.48;;;5.20;;
72856;SDS011;62742;52.136;4.500;2023-08-21T01:57:41;9.70;;;4.95;;
72856;SDS011;62742;52.136;4.500;2023-08-21T02:00:08;13.93;;;5.82;;
72856;SDS011;62742;52.136;4.500;2023-08-21T02:02:35;11.70;;;5.00;;
72856;SDS011;62742;52.136;4.500;2023-08-21T02:05:02;10.45;;;4.90;;
72856;SDS011;62742;52.136;4.500;2023-08-21T02:07:29;9.90;;;4.45;;
72856;SDS011;62742;52.136;4.500;2023-08-21T02:09:56;10.55;;;3.42;;
72856;SDS011;62742;52.136;4.500;2023-08-21T02:12:22;9.13;;;3.53;;
72856;SDS011;62742;52.136;4.500;2023-08-21T02:14:48;8.35;;;3.70;;
72856;SDS011;62742;52.136;4.500;2023-08-21T02:17:15;10.00;;;3.88;;
72856;SDS011;62742;52.136;4.500;2023-08-21T02:19:41;11.38;;;3.72;;
72856;SDS011;62742;52.136;4.500;2023-08-21T02:22:08;9.15;;;3.63;;
72856;SDS011;62742;52.136;4.500;2023-08-21T02:24:34;8.73;;;3.33;;
72856;SDS011;62742;52.136;4.500;2023-08-21T02:27:00;9.15;;;3.78;;
72856;SDS011;62742;52.136;4.500;2023-08-21T02:29:27;7.80;;;3.42;;
72856;SDS011;62742;52.136;4.500;2023-08-21T02:31:53;7.95;;;3.60;;
72856;SDS011;62742;52.136;4.500;2023-08-21T02:34:20;9.45;;;3.75;;
72856;SDS011;62742;52.136;4.500;2023-08-21T02:36:46;10.90;;;3.22;;
72856;SDS011;62742;52.136;4.500;2023-08-21T02:39:13;5.88;;;2.72;;
72856;SDS011;62742;52.136;4.500;2023-08-21T02:41:39;8.82;;;3.10;;
72856;SDS011;62742;52.136;4.500;2023-08-21T02:44:08;7.35;;;3.13;;
72856;SDS011;62742;52.136;4.500;2023-08-21T02:46:36;6.05;;;3.08;;
72856;SDS011;62742;52.136;4.500;2023-08-21T02:49:02;5.82;;;2.80;;
72856;SDS011;62742;52.136;4.500;2023-08-21T02:51:28;5.57;;;2.80;;
72856;SDS011;62742;52.136;4.500;2023-08-21T02:53:55;5.05;;;2.53;;
72856;SDS011;62742;52.136;4.500;2023-08-21T02:56:21;6.95;;;3.00;;
72856;SDS011;62742;52.136;4.500;2023-08-21T02:58:48;6.47;;;2.83;;
72856;SDS011;62742;52.136;4.500;2023-08-21T03:01:14;9.18;;;3.58;;
72856;SDS011;62742;52.136;4.500;2023-08-21T03:03:41;6.82;;;2.80;;
72856;SDS011;62742;52.136;4.500;2023-08-21T03:06:07;7.53;;;2.53;;
72856;SDS011;62742;52.136;4.500;2023-08-21T03:08:34;7.15;;;2.50;;
72856;SDS011;62742;52.136;4.500;2023-08-21T03:11:00;7.13;;;2.53;;
72856;SDS011;62742;52.136;4.500;2023-08-21T03:13:27;4.90;;;2.45;;
72856;SDS011;62742;52.136;4.500;2023-08-21T03:15:53;5.90;;;2.30;;
72856;SDS011;62742;52.136;4.500;2023-08-21T03:18:20;9.60;;;2.88;;
72856;SDS011;62742;52.136;4.500;2023-08-21T03:20:46;6.47;;;2.83;;
72856;SDS011;62742;52.136;4.500;2023-08-21T03:23:13;8.75;;;2.75;;
72856;SDS011;62742;52.136;4.500;2023-08-21T03:25:40;4.43;;;2.03;;
72856;SDS011;62742;52.136;4.500;2023-08-21T03:28:06;8.80;;;3.03;;
72856;SDS011;62742;52.136;4.500;2023-08-21T03:30:33;6.80;;;2.50;;
72856;SDS011;62742;52.136;4.500;2023-08-21T03:32:59;6.60;;;3.05;;
72856;SDS011;62742;52.136;4.500;2023-08-21T03:35:26;7.55;;;2.92;;
72856;SDS011;62742;52.136;4.500;2023-08-21T03:37:52;8.85;;;3.03;;
72856;SDS011;62742;52.136;4.500;2023-08-21T03:40:19;10.45;;;3.42;;
72856;SDS011;62742;52.136;4.500;2023-08-21T03:42:45;7.72;;;2.95;;
72856;SDS011;62742;52.136;4.500;2023-08-21T03:45:13;11.68;;;3.22;;
72856;SDS011;62742;52.136;4.500;2023-08-21T03:47:39;7.70;;;3.05;;
72856;SDS011;62742;52.136;4.500;2023-08-21T03:50:06;5.13;;;2.38;;
72856;SDS011;62742;52.136;4.500;2023-08-21T03:52:32;6.32;;;2.22;;
72856;SDS011;62742;52.136;4.500;2023-08-21T03:54:59;7.43;;;2.63;;
72856;SDS011;62742;52.136;4.500;2023-08-21T03:57:25;8.77;;;3.25;;
72856;SDS011;62742;52.136;4.500;2023-08-21T03:59:52;5.57;;;2.45;;
72856;SDS011;62742;52.136;4.500;2023-08-21T04:02:18;6.75;;;2.90;;
72856;SDS011;62742;52.136;4.500;2023-08-21T04:04:45;6.35;;;2.38;;
72856;SDS011;62742;52.136;4.500;2023-08-21T04:07:14;5.72;;;2.25;;
72856;SDS011;62742;52.136;4.500;2023-08-21T04:09:40;7.35;;;2.67;;
72856;SDS011;62742;52.136;4.500;2023-08-21T04:12:10;7.30;;;2.45;;
72856;SDS011;62742;52.136;4.500;2023-08-21T04:14:39;7.15;;;3.10;;
72856;SDS011;62742;52.136;4.500;2023-08-21T04:17:05;9.07;;;2.58;;
72856;SDS011;62742;52.136;4.500;2023-08-21T04:19:32;6.90;;;2.90;;
72856;SDS011;62742;52.136;4.500;2023-08-21T04:22:00;6.10;;;2.67;;
72856;SDS011;62742;52.136;4.500;2023-08-21T04:24:26;6.68;;;2.70;;
72856;SDS011;62742;52.136;4.500;2023-08-21T04:26:53;6.22;;;2.78;;
72856;SDS011;62742;52.136;4.500;2023-08-21T04:29:19;7.32;;;2.85;;
72856;SDS011;62742;52.136;4.500;2023-08-21T04:31:46;7.10;;;2.65;;
72856;SDS011;62742;52.136;4.500;2023-08-21T04:34:13;8.68;;;3.28;;
72856;SDS011;62742;52.136;4.500;2023-08-21T04:36:40;7.95;;;2.30;;
72856;SDS011;62742;52.136;4.500;2023-08-21T04:39:06;7.32;;;2.67;;
72856;SDS011;62742;52.136;4.500;2023-08-21T04:41:33;7.32;;;2.83;;
72856;SDS011;62742;52.136;4.500;2023-08-21T04:44:00;6.40;;;2.72;;
72856;SDS011;62742;52.136;4.500;2023-08-21T04:46:27;7.40;;;2.72;;
72856;SDS011;62742;52.136;4.500;2023-08-21T04:48:54;7.43;;;2.78;;
72856;SDS011;62742;52.136;4.500;2023-08-21T04:51:20;7.65;;;3.30;;
72856;SDS011;62742;52.136;4.500;2023-08-21T04:53:47;8.13;;;3.70;;
72856;SDS011;62742;52.136;4.500;2023-08-21T04:56:13;7.80;;;3.55;;
72856;SDS011;62742;52.136;4.500;2023-08-21T04:58:39;13.57;;;3.88;;
72856;SDS011;62742;52.136;4.500;2023-08-21T05:01:06;8.38;;;3.83;;
72856;SDS011;62742;52.136;4.500;2023-08-21T05:03:32;9.70;;;3.85;;
72856;SDS011;62742;52.136;4.500;2023-08-21T05:05:59;10.05;;;4.43;;
72856;SDS011;62742;52.136;4.500;2023-08-21T05:08:25;7.05;;;3.40;;
72856;SDS011;62742;52.136;4.500;2023-08-21T05:10:56;8.48;;;3.70;;
72856;SDS011;62742;52.136;4.500;2023-08-21T05:13:24;7.07;;;4.10;;
72856;SDS011;62742;52.136;4.500;2023-08-21T05:15:55;7.60;;;2.90;;
72856;SDS011;62742;52.136;4.500;2023-08-21T05:18:23;8.43;;;3.08;;
72856;SDS011;62742;52.136;4.500;2023-08-21T05:20:53;8.43;;;3.47;;
72856;SDS011;62742;52.136;4.500;2023-08-21T05:23:21;10.10;;;4.10;;
72856;SDS011;62742;52.136;4.500;2023-08-21T05:25:48;8.30;;;3.35;;
72856;SDS011;62742;52.136;4.500;2023-08-21T05:28:15;9.40;;;4.13;;
72856;SDS011;62742;52.136;4.500;2023-08-21T05:30:42;7.18;;;3.40;;
72856;SDS011;62742;52.136;4.500;2023-08-21T05:33:08;6.75;;;2.75;;
72856;SDS011;62742;52.136;4.500;2023-08-21T05:35:36;12.35;;;4.78;;
72856;SDS011;62742;52.136;4.500;2023-08-21T05:38:04;10.18;;;4.90;;
72856;SDS011;62742;52.136;4.500;2023-08-21T05:40:31;12.48;;;7.00;;
72856;SDS011;62742;52.136;4.500;2023-08-21T05:42:58;11.13;;;6.30;;
72856;SDS011;62742;52.136;4.500;2023-08-21T05:45:25;10.75;;;6.00;;
72856;SDS011;62742;52.136;4.500;2023-08-21T05:47:51;12.73;;;5.70;;
72856;SDS011;62742;52.136;4.500;2023-08-21T05:50:21;11.40;;;5.18;;
72856;SDS011;62742;52.136;4.500;2023-08-21T05:52:48;9.50;;;4.18;;
72856;SDS011;62742;52.136;4.500;2023-08-21T05:55:14;7.43;;;3.20;;
72856;SDS011;62742;52.136;4.500;2023-08-21T05:57:41;7.20;;;2.60;;
72856;SDS011;62742;52.136;4.500;2023-08-21T06:00:07;6.68;;;3.30;;
72856;SDS011;62742;52.136;4.500;2023-08-21T06:02:34;6.35;;;3.08;;
72856;SDS011;62742;52.136;4.500;2023-08-21T06:05:01;4.97;;;2.50;;
72856;SDS011;62742;52.136;4.500;2023-08-21T06:07:28;8.13;;;2.75;;
72856;SDS011;62742;52.136;4.500;2023-08-21T06:09:55;5.50;;;2.40;;
72856;SDS011;62742;52.136;4.500;2023-08-21T06:12:23;5.82;;;2.95;;
72856;SDS011;62742;52.136;4.500;2023-08-21T06:14:50;6.25;;;2.60;;
72856;SDS011;62742;52.136;4.500;2023-08-21T06:17:17;6.75;;;2.50;;
72856;SDS011;62742;52.136;4.500;2023-08-21T06:19:44;6.38;;;2.80;;
72856;SDS011;62742;52.136;4.500;2023-08-21T06:22:11;8.35;;;3.38;;
72856;SDS011;62742;52.136;4.500;2023-08-21T06:24:41;5.13;;;2.53;;
72856;SDS011;62742;52.136;4.500;2023-08-21T06:27:10;5.18;;;2.60;;
72856;SDS011;62742;52.136;4.500;2023-08-21T06:29:38;6.03;;;2.70;;
72856;SDS011;62742;52.136;4.500;2023-08-21T06:32:06;8.20;;;3.85;;
72856;SDS011;62742;52.136;4.500;2023-08-21T06:34:32;12.10;;;4.28;;
72856;SDS011;62742;52.136;4.500;2023-08-21T06:37:03;12.10;;;4.55;;
72856;SDS011;62742;52.136;4.500;2023-08-21T06:39:33;9.98;;;4.00;;
72856;SDS011;62742;52.136;4.500;2023-08-21T06:42:00;9.05;;;3.63;;
72856;SDS011;62742;52.136;4.500;2023-08-21T06:44:27;12.40;;;3.92;;
72856;SDS011;62742;52.136;4.500;2023-08-21T06:46:55;12.02;;;4.00;;
72856;SDS011;62742;52.136;4.500;2023-08-21T06:49:22;10.35;;;3.95;;
72856;SDS011;62742;52.136;4.500;2023-08-21T06:51:50;12.07;;;4.25;;
72856;SDS011;62742;52.136;4.500;2023-08-21T06:54:16;12.05;;;3.53;;
72856;SDS011;62742;52.136;4.500;2023-08-21T06:56:44;14.27;;;4.30;;
72856;SDS011;62742;52.136;4.500;2023-08-21T06:59:10;12.90;;;3.83;;
72856;SDS011;62742;52.136;4.500;2023-08-21T07:01:36;8.38;;;3.40;;
72856;SDS011;62742;52.136;4.500;2023-08-21T07:04:05;8.82;;;3.22;;
72856;SDS011;62742;52.136;4.500;2023-08-21T07:06:37;10.50;;;3.58;;
72856;SDS011;62742;52.136;4.500;2023-08-21T07:09:07;11.52;;;3.47;;
72856;SDS011;62742;52.136;4.500;2023-08-21T07:11:42;11.05;;;4.00;;
72856;SDS011;62742;52.136;4.500;2023-08-21T07:14:08;8.85;;;3.15;;
72856;SDS011;62742;52.136;4.500;2023-08-21T07:16:35;12.05;;;3.10;;
72856;SDS011;62742;52.136;4.500;2023-08-21T07:19:01;10.30;;;3.22;;
72856;SDS011;62742;52.136;4.500;2023-08-21T07:21:28;11.48;;;3.00;;
72856;SDS011;62742;52.136;4.500;2023-08-21T07:23:55;11.48;;;3.45;;
72856;SDS011;62742;52.136;4.500;2023-08-21T07:26:21;12.05;;;3.22;;
72856;SDS011;62742;52.136;4.500;2023-08-21T07:28:49;8.55;;;2.95;;
72856;SDS011;62742;52.136;4.500;2023-08-21T07:31:15;10.40;;;3.47;;
72856;SDS011;62742;52.136;4.500;2023-08-21T07:33:43;12.25;;;3.58;;
72856;SDS011;62742;52.136;4.500;2023-08-21T07:36:10;10.93;;;3.85;;
72856;SDS011;62742;52.136;4.500;2023-08-21T07:38:43;11.25;;;2.90;;
72856;SDS011;62742;52.136;4.500;2023-08-21T07:41:10;8.15;;;2.65;;
72856;SDS011;62742;52.136;4.500;2023-08-21T07:43:43;12.02;;;3.40;;
72856;SDS011;62742;52.136;4.500;2023-08-21T07:46:11;9.88;;;3.25;;
72856;SDS011;62742;52.136;4.500;2023-08-21T07:48:42;12.55;;;3.13;;
72856;SDS011;62742;52.136;4.500;2023-08-21T07:51:10;9.77;;;3.10;;
72856;SDS011;62742;52.136;4.500;2023-08-21T07:53:38;10.25;;;3.03;;
72856;SDS011;62742;52.136;4.500;2023-08-21T07:56:05;11.82;;;2.80;;
72856;SDS011;62742;52.136;4.500;2023-08-21T07:58:33;10.77;;;3.13;;
72856;SDS011;62742;52.136;4.500;2023-08-21T08:00:59;10.90;;;2.97;;
72856;SDS011;62742;52.136;4.500;2023-08-21T08:03:27;8.52;;;2.40;;
72856;SDS011;62742;52.136;4.500;2023-08-21T08:05:53;11.60;;;2.58;;
72856;SDS011;62742;52.136;4.500;2023-08-21T08:08:20;8.02;;;2.60;;
72856;SDS011;62742;52.136;4.500;2023-08-21T08:10:46;9.63;;;2.53;;
72856;SDS011;62742;52.136;4.500;2023-08-21T08:13:13;9.57;;;2.58;;
72856;SDS011;62742;52.136;4.500;2023-08-21T08:15:41;8.60;;;2.40;;
72856;SDS011;62742;52.136;4.500;2023-08-21T08:18:11;10.90;;;2.70;;
72856;SDS011;62742;52.136;4.500;2023-08-21T08:20:39;6.90;;;2.00;;
72856;SDS011;62742;52.136;4.500;2023-08-21T08:23:06;10.57;;;2.80;;
72856;SDS011;62742;52.136;4.500;2023-08-21T08:25:33;10.45;;;2.42;;
72856;SDS011;62742;52.136;4.500;2023-08-21T08:28:02;10.18;;;2.55;;
72856;SDS011;62742;52.136;4.500;2023-08-21T08:30:29;10.35;;;2.38;;
72856;SDS011;62742;52.136;4.500;2023-08-21T08:32:56;9.25;;;2.65;;
72856;SDS011;62742;52.136;4.500;2023-08-21T08:35:22;6.78;;;2.13;;
72856;SDS011;62742;52.136;4.500;2023-08-21T08:38:01;10.30;;;3.10;;
72856;SDS011;62742;52.136;4.500;2023-08-21T08:40:36;9.30;;;2.38;;
72856;SDS011;62742;52.136;4.500;2023-08-21T08:43:21;6.93;;;2.20;;
72856;SDS011;62742;52.136;4.500;2023-08-21T08:45:56;6.40;;;1.90;;
72856;SDS011;62742;52.136;4.500;2023-08-21T08:48:34;8.13;;;1.85;;
72856;SDS011;62742;52.136;4.500;2023-08-21T08:51:07;8.60;;;2.33;;
72856;SDS011;62742;52.136;4.500;2023-08-21T08:53:39;6.25;;;2.03;;
72856;SDS011;62742;52.136;4.500;2023-08-21T08:56:10;6.15;;;2.05;;
72856;SDS011;62742;52.136;4.500;2023-08-21T08:58:38;6.55;;;1.90;;
72856;SDS011;62742;52.136;4.500;2023-08-21T09:01:10;6.97;;;1.90;;
72856;SDS011;62742;52.136;4.500;2023-08-21T09:03:42;9.57;;;1.70;;
72856;SDS011;62742;52.136;4.500;2023-08-21T09:06:13;4.85;;;1.77;;
72856;SDS011;62742;52.136;4.500;2023-08-21T09:08:42;6.35;;;1.70;;
72856;SDS011;62742;52.136;4.500;2023-08-21T09:11:21;6.43;;;1.83;;
72856;SDS011;62742;52.136;4.500;2023-08-21T09:13:50;6.97;;;2.00;;
72856;SDS011;62742;52.136;4.500;2023-08-21T09:16:21;7.78;;;1.45;;
72856;SDS011;62742;52.136;4.500;2023-08-21T09:18:53;7.78;;;1.83;;
72856;SDS011;62742;52.136;4.500;2023-08-21T09:21:24;9.70;;;1.85;;
72856;SDS011;62742;52.136;4.500;2023-08-21T09:24:00;5.72;;;1.80;;
72856;SDS011;62742;52.136;4.500;2023-08-21T09:26:44;6.03;;;1.83;;
72856;SDS011;62742;52.136;4.500;2023-08-21T09:29:15;7.47;;;1.90;;
72856;SDS011;62742;52.136;4.500;2023-08-21T09:31:45;5.55;;;1.63;;
72856;SDS011;62742;52.136;4.500;2023-08-21T09:34:12;6.88;;;1.50;;
72856;SDS011;62742;52.136;4.500;2023-08-21T09:36:40;9.80;;;2.13;;
72856;SDS011;62742;52.136;4.500;2023-08-21T09:39:14;7.15;;;1.88;;
72856;SDS011;62742;52.136;4.500;2023-08-21T09:41:56;6.32;;;1.83;;
72856;SDS011;62742;52.136;4.500;2023-08-21T09:44:46;5.50;;;1.48;;
72856;SDS011;62742;52.136;4.500;2023-08-21T09:47:17;5.47;;;1.30;;
72856;SDS011;62742;52.136;4.500;2023-08-21T09:49:57;6.18;;;1.60;;
72856;SDS011;62742;52.136;4.500;2023-08-21T09:52:26;6.43;;;1.45;;
72856;SDS011;62742;52.136;4.500;2023-08-21T09:54:57;5.47;;;1.48;;
72856;SDS011;62742;52.136;4.500;2023-08-21T09:57:24;4.72;;;1.45;;
72856;SDS011;62742;52.136;4.500;2023-08-21T09:59:55;5.45;;;1.60;;
72856;SDS011;62742;52.136;4.500;2023-08-21T10:02:45;5.22;;;1.58;;
72856;SDS011;62742;52.136;4.500;2023-08-21T10:05:18;5.38;;;1.50;;
72856;SDS011;62742;52.136;4.500;2023-08-21T10:07:48;4.18;;;1.40;;
72856;SDS011;62742;52.136;4.500;2023-08-21T10:10:16;6.82;;;1.38;;
72856;SDS011;62742;52.136;4.500;2023-08-21T10:12:49;5.75;;;1.40;;
72856;SDS011;62742;52.136;4.500;2023-08-21T10:15:20;4.70;;;1.40;;
72856;SDS011;62742;52.136;4.500;2023-08-21T10:17:53;5.32;;;1.40;;
72856;SDS011;62742;52.136;4.500;2023-08-21T10:20:24;7.10;;;1.48;;
72856;SDS011;62742;52.136;4.500;2023-08-21T10:22:53;6.75;;;1.33;;
72856;SDS011;62742;52.136;4.500;2023-08-21T10:25:22;6.57;;;1.35;;
72856;SDS011;62742;52.136;4.500;2023-08-21T10:27:53;5.95;;;1.13;;
72856;SDS011;62742;52.136;4.500;2023-08-21T10:30:29;5.00;;;1.25;;
72856;SDS011;62742;52.136;4.500;2023-08-21T10:32:57;4.82;;;1.20;;
72856;SDS011;62742;52.136;4.500;2023-08-21T10:35:30;7.40;;;1.33;;
72856;SDS011;62742;52.136;4.500;2023-08-21T10:38:10;5.90;;;1.40;;
72856;SDS011;62742;52.136;4.500;2023-08-21T10:40:39;6.25;;;1.20;;
72856;SDS011;62742;52.136;4.500;2023-08-21T10:43:47;4.45;;;1.25;;
72856;SDS011;62742;52.136;4.500;2023-08-21T10:46:18;6.60;;;1.70;;
72856;SDS011;62742;52.136;4.500;2023-08-21T10:48:51;3.85;;;1.23;;
72856;SDS011;62742;52.136;4.500;2023-08-21T10:51:24;5.93;;;1.35;;
72856;SDS011;62742;52.136;4.500;2023-08-21T10:54:04;4.30;;;1.45;;
72856;SDS011;62742;52.136;4.500;2023-08-21T10:56:37;5.22;;;1.50;;
72856;SDS011;62742;52.136;4.500;2023-08-21T10:59:04;4.78;;;1.60;;
72856;SDS011;62742;52.136;4.500;2023-08-21T11:01:45;2.53;;;1.40;;
72856;SDS011;62742;52.136;4.500;2023-08-21T11:04:19;7.90;;;1.60;;
72856;SDS011;62742;52.136;4.500;2023-08-21T11:07:16;4.90;;;1.33;;
72856;SDS011;62742;52.136;4.500;2023-08-21T11:09:44;4.82;;;1.45;;
72856;SDS011;62742;52.136;4.500;2023-08-21T11:12:17;5.18;;;1.50;;
72856;SDS011;62742;52.136;4.500;2023-08-21T11:15:24;4.00;;;1.15;;
72856;SDS011;62742;52.136;4.500;2023-08-21T11:17:55;4.65;;;1.02;;
72856;SDS011;62742;52.136;4.500;2023-08-21T11:20:45;7.25;;;1.92;;
72856;SDS011;62742;52.136;4.500;2023-08-21T11:23:15;4.93;;;1.25;;
72856;SDS011;62742;52.136;4.500;2023-08-21T11:25:43;3.05;;;1.20;;
72856;SDS011;62742;52.136;4.500;2023-08-21T11:28:15;4.15;;;1.15;;
72856;SDS011;62742;52.136;4.500;2023-08-21T11:30:42;4.30;;;1.30;;
72856;SDS011;62742;52.136;4.500;2023-08-21T11:33:11;6.20;;;1.25;;
72856;SDS011;62742;52.136;4.500;2023-08-21T11:35:42;4.00;;;1.13;;
72856;SDS011;62742;52.136;4.500;2023-08-21T11:38:16;4.57;;;1.30;;
72856;SDS011;62742;52.136;4.500;2023-08-21T11:40:58;3.40;;;1.10;;
72856;SDS011;62742;52.136;4.500;2023-08-21T11:46:18;7.80;;;1.40;;
72856;SDS011;62742;52.136;4.500;2023-08-21T11:48:54;6.00;;;1.38;;
72856;SDS011;62742;52.136;4.500;2023-08-21T11:51:22;3.35;;;1.42;;
72856;SDS011;62742;52.136;4.500;2023-08-21T11:53:49;3.80;;;1.20;;
72856;SDS011;62742;52.136;4.500;2023-08-21T11:56:17;4.97;;;1.08;;
72856;SDS011;62742;52.136;4.500;2023-08-21T11:59:20;4.68;;;1.38;;
72856;SDS011;62742;52.136;4.500;2023-08-21T12:01:56;4.40;;;1.50;;
72856;SDS011;62742;52.136;4.500;2023-08-21T12:04:25;3.25;;;1.20;;
72856;SDS011;62742;52.136;4.500;2023-08-21T12:06:59;6.40;;;1.67;;
72856;SDS011;62742;52.136;4.500;2023-08-21T12:09:32;4.78;;;1.13;;
72856;SDS011;62742;52.136;4.500;2023-08-21T12:12:06;3.92;;;1.20;;
72856;SDS011;62742;52.136;4.500;2023-08-21T12:14:46;4.30;;;1.42;;
72856;SDS011;62742;52.136;4.500;2023-08-21T12:17:16;5.38;;;1.20;;
72856;SDS011;62742;52.136;4.500;2023-08-21T12:19:44;2.53;;;1.00;;
72856;SDS011;62742;52.136;4.500;2023-08-21T12:22:11;4.72;;;1.20;;
72856;SDS011;62742;52.136;4.500;2023-08-21T12:24:38;3.83;;;1.30;;
72856;SDS011;62742;52.136;4.500;2023-08-21T12:27:08;5.00;;;1.10;;
72856;SDS011;62742;52.136;4.500;2023-08-21T12:29:36;3.42;;;1.20;;
72856;SDS011;62742;52.136;4.500;2023-08-21T12:32:07;4.40;;;1.30;;
72856;SDS011;62742;52.136;4.500;2023-08-21T12:34:39;3.13;;;1.02;;
72856;SDS011;62742;52.136;4.500;2023-08-21T12:37:07;2.95;;;1.00;;
72856;SDS011;62742;52.136;4.500;2023-08-21T12:39:36;3.72;;;1.00;;
72856;SDS011;62742;52.136;4.500;2023-08-21T12:42:08;3.35;;;1.23;;
72856;SDS011;62742;52.136;4.500;2023-08-21T12:44:36;3.80;;;1.20;;
72856;SDS011;62742;52.136;4.500;2023-08-21T12:47:22;3.78;;;1.20;;
72856;SDS011;62742;52.136;4.500;2023-08-21T12:49:52;5.05;;;1.33;;
72856;SDS011;62742;52.136;4.500;2023-08-21T12:52:27;5.28;;;1.25;;
72856;SDS011;62742;52.136;4.500;2023-08-21T12:55:03;4.40;;;1.20;;
72856;SDS011;62742;52.136;4.500;2023-08-21T12:57:33;4.75;;;1.27;;
72856;SDS011;62742;52.136;4.500;2023-08-21T13:00:06;4.95;;;1.42;;
72856;SDS011;62742;52.136;4.500;2023-08-21T13:02:39;3.97;;;1.20;;
72856;SDS011;62742;52.136;4.500;2023-08-21T13:05:11;5.22;;;1.25;;
72856;SDS011;62742;52.136;4.500;2023-08-21T13:07:40;5.85;;;1.45;;
72856;SDS011;62742;52.136;4.500;2023-08-21T13:10:08;3.75;;;1.20;;
72856;SDS011;62742;52.136;4.500;2023-08-21T13:12:35;3.63;;;1.20;;
72856;SDS011;62742;52.136;4.500;2023-08-21T13:15:03;3.15;;;1.13;;
72856;SDS011;62742;52.136;4.500;2023-08-21T13:17:38;3.63;;;1.15;;
72856;SDS011;62742;52.136;4.500;2023-08-21T13:20:07;4.07;;;1.10;;
72856;SDS011;62742;52.136;4.500;2023-08-21T13:22:49;6.28;;;1.20;;
72856;SDS011;62742;52.136;4.500;2023-08-21T13:25:24;5.40;;;1.45;;
72856;SDS011;62742;52.136;4.500;2023-08-21T13:28:01;4.78;;;1.25;;
72856;SDS011;62742;52.136;4.500;2023-08-21T13:30:37;3.88;;;1.10;;
72856;SDS011;62742;52.136;4.500;2023-08-21T13:33:14;5.28;;;1.30;;
72856;SDS011;62742;52.136;4.500;2023-08-21T13:35:52;4.47;;;1.27;;
72856;SDS011;62742;52.136;4.500;2023-08-21T13:38:22;6.18;;;1.40;;
72856;SDS011;62742;52.136;4.500;2023-08-21T13:40:58;3.95;;;1.30;;
72856;SDS011;62742;52.136;4.500;2023-08-21T13:43:28;5.68;;;1.52;;
72856;SDS011;62742;52.136;4.500;2023-08-21T13:45:56;4.20;;;1.40;;
72856;SDS011;62742;52.136;4.500;2023-08-21T13:48:27;5.30;;;1.45;;
72856;SDS011;62742;52.136;4.500;2023-08-21T13:51:02;3.00;;;1.08;;
72856;SDS011;62742;52.136;4.500;2023-08-21T13:53:33;6.63;;;1.52;;
72856;SDS011;62742;52.136;4.500;2023-08-21T13:56:05;4.55;;;1.45;;
72856;SDS011;62742;52.136;4.500;2023-08-21T13:58:37;6.10;;;1.35;;
72856;SDS011;62742;52.136;4.500;2023-08-21T14:01:06;3.85;;;1.30;;
72856;SDS011;62742;52.136;4.500;2023-08-21T14:03:37;5.90;;;1.33;;
72856;SDS011;62742;52.136;4.500;2023-08-21T14:06:13;5.28;;;1.35;;
72856;SDS011;62742;52.136;4.500;2023-08-21T14:08:43;4.97;;;1.40;;
72856;SDS011;62742;52.136;4.500;2023-08-21T14:11:11;4.60;;;1.40;;
72856;SDS011;62742;52.136;4.500;2023-08-21T14:13:46;5.97;;;1.50;;
72856;SDS011;62742;52.136;4.500;2023-08-21T14:16:36;5.53;;;1.40;;
72856;SDS011;62742;52.136;4.500;2023-08-21T14:19:26;4.40;;;1.42;;
72856;SDS011;62742;52.136;4.500;2023-08-21T14:22:00;3.33;;;1.20;;
72856;SDS011;62742;52.136;4.500;2023-08-21T14:24:30;3.72;;;1.48;;
72856;SDS011;62742;52.136;4.500;2023-08-21T14:26:57;5.65;;;1.58;;
72856;SDS011;62742;52.136;4.500;2023-08-21T14:29:26;3.78;;;1.50;;
72856;SDS011;62742;52.136;4.500;2023-08-21T14:32:01;6.45;;;1.40;;
72856;SDS011;62742;52.136;4.500;2023-08-21T14:34:31;5.72;;;1.50;;
72856;SDS011;62742;52.136;4.500;2023-08-21T14:36:58;4.18;;;1.30;;
72856;SDS011;62742;52.136;4.500;2023-08-21T14:39:31;6.43;;;1.40;;
72856;SDS011;62742;52.136;4.500;2023-08-21T14:42:00;3.88;;;1.30;;
72856;SDS011;62742;52.136;4.500;2023-08-21T14:44:50;5.78;;;1.30;;
72856;SDS011;62742;52.136;4.500;2023-08-21T14:47:31;5.10;;;1.40;;
72856;SDS011;62742;52.136;4.500;2023-08-21T14:50:04;4.60;;;1.55;;
72856;SDS011;62742;52.136;4.500;2023-08-21T14:52:40;5.65;;;1.40;;
72856;SDS011;62742;52.136;4.500;2023-08-21T14:55:07;4.13;;;1.00;;
72856;SDS011;62742;52.136;4.500;2023-08-21T14:57:45;5.78;;;1.65;;
72856;SDS011;62742;52.136;4.500;2023-08-21T15:00:22;6.35;;;1.63;;
72856;SDS011;62742;52.136;4.500;2023-08-21T15:02:59;4.75;;;1.60;;
72856;SDS011;62742;52.136;4.500;2023-08-21T15:05:27;3.65;;;1.42;;